Time;durP1;ratioP1;P1;durP2;ratioP2;P2;SDS_P1;SDS_P2;PMS_P1;PMS_P2;Temp;Humidity;BMP_temperature;BMP_pressure;BME280_temperature;BME280_humidity;BME280_pressure;Samples;Min_cycle;Max_cycle;Signal;HPM_P1;HPM_P2
2022/10/05 00:02:18;;;;;;;5.72;3.00;;;;;;;9.40;100.00;96791.22;10430076;27;96853;-82
2022/10/05 00:07:24;;;;;;;6.53;2.95;;;;;;;9.36;100.00;96787.19;10387292;27;96949;-83
2022/10/05 00:12:29;;;;;;;6.60;3.45;;;;;;;9.33;100.00;96791.81;10415840;27;97137;-83
2022/10/05 00:17:33;;;;;;;9.10;4.00;;;;;;;9.30;100.00;96777.28;10438945;27;96882;-83
2022/10/05 00:22:36;;;;;;;7.00;3.63;;;;;;;9.29;100.00;96791.25;10390244;27;96819;-81
2022/10/05 00:27:39;;;;;;;5.05;3.67;;;;;;;9.24;100.00;96788.19;10423256;27;97336;-82
2022/10/05 00:32:43;;;;;;;7.57;3.30;;;;;;;9.17;100.00;96787.03;10429412;27;97064;-82
2022/10/05 00:37:51;;;;;;;6.47;3.33;;;;;;;9.13;100.00;96790.88;10451198;27;97325;-80
2022/10/05 00:43:05;;;;;;;10.20;4.10;;;;;;;9.09;100.00;96790.28;10414598;27;96909;-80
2022/10/05 00:48:18;;;;;;;9.18;3.90;;;;;;;9.06;100.00;96785.31;10410139;27;98652;-80
2022/10/05 00:53:33;;;;;;;6.60;4.00;;;;;;;9.03;100.00;96788.16;10426957;27;99991;-80
2022/10/05 00:58:51;;;;;;;8.18;3.50;;;;;;;8.94;100.00;96789.75;10430707;27;96740;-80
2022/10/05 01:04:08;;;;;;;5.55;2.65;;;;;;;8.87;100.00;96788.59;10402095;27;97318;-80
2022/10/05 01:09:18;;;;;;;4.80;3.00;;;;;;;8.83;100.00;96794.97;10399970;28;96854;-81
2022/10/05 01:14:27;;;;;;;6.35;3.40;;;;;;;8.80;100.00;96790.03;10449604;27;97042;-80
2022/10/05 01:20:01;;;;;;;4.97;2.97;;;;;;;8.69;100.00;96789.13;10416926;27;97236;-80
2022/10/05 01:25:20;;;;;;;5.38;3.10;;;;;;;8.61;100.00;96785.47;10424031;27;97071;-80
2022/10/05 01:30:25;;;;;;;6.65;4.00;;;;;;;8.51;100.00;96786.19;10414924;27;97170;-80
2022/10/05 01:35:42;;;;;;;7.25;4.28;;;;;;;8.47;100.00;96789.97;10432235;27;97107;-80
2022/10/05 01:40:54;;;;;;;6.57;4.45;;;;;;;8.46;100.00;96779.69;10418211;27;98667;-80
2022/10/05 01:46:06;;;;;;;5.20;3.35;;;;;;;8.47;100.00;96779.56;10412196;27;97206;-80
2022/10/05 01:51:18;;;;;;;7.05;3.55;;;;;;;8.47;100.00;96784.78;10413925;27;99648;-81
2022/10/05 01:56:28;;;;;;;5.55;3.80;;;;;;;8.43;100.00;96778.16;10413561;27;97472;-80
2022/10/05 02:01:38;;;;;;;5.82;4.20;;;;;;;8.37;100.00;96777.81;10411126;27;98342;-80
2022/10/05 02:06:45;;;;;;;7.25;4.07;;;;;;;8.30;100.00;96770.47;10410030;27;96805;-80
2022/10/05 02:11:54;;;;;;;8.15;3.83;;;;;;;8.27;100.00;96772.50;10410293;27;97496;-80
2022/10/05 02:17:05;;;;;;;6.47;3.90;;;;;;;8.26;100.00;96761.25;10437210;27;97589;-80
2022/10/05 02:22:17;;;;;;;6.43;3.50;;;;;;;8.25;100.00;96764.81;10435065;27;98206;-81
2022/10/05 02:27:25;;;;;;;11.25;4.10;;;;;;;8.23;100.00;96766.69;10407513;28;96957;-80
2022/10/05 02:32:36;;;;;;;5.22;2.70;;;;;;;8.14;100.00;96762.22;10438461;27;99430;-80
2022/10/05 02:37:49;;;;;;;7.40;3.05;;;;;;;8.05;100.00;96762.91;10431903;27;98739;-80
2022/10/05 02:43:00;;;;;;;6.18;3.67;;;;;;;8.03;100.00;96763.06;10414446;27;97465;-80
2022/10/05 02:48:13;;;;;;;5.38;3.60;;;;;;;8.00;100.00;96765.09;10433036;27;97041;-80
2022/10/05 02:53:27;;;;;;;7.18;3.08;;;;;;;7.93;100.00;96770.75;10420701;27;97112;-80
2022/10/05 02:58:38;;;;;;;4.25;2.70;;;;;;;7.89;100.00;96766.72;10439455;27;97211;-80
2022/10/05 03:03:46;;;;;;;6.68;2.60;;;;;;;7.86;100.00;96774.78;10453955;27;97509;-80
2022/10/05 03:08:59;;;;;;;6.20;3.83;;;;;;;7.85;100.00;96767.06;10439055;27;97550;-80
2022/10/05 03:14:12;;;;;;;6.55;3.13;;;;;;;7.83;100.00;96766.38;10429026;27;97228;-80
2022/10/05 03:19:35;;;;;;;9.25;4.10;;;;;;;7.79;100.00;96773.59;10452216;27;96812;-80
2022/10/05 03:24:55;;;;;;;6.75;3.17;;;;;;;7.73;100.00;96766.25;10443035;27;96834;-80
2022/10/05 03:30:04;;;;;;;11.60;3.38;;;;;;;7.67;100.00;96769.31;10458094;27;97161;-80
2022/10/05 03:35:14;;;;;;;5.13;2.85;;;;;;;7.63;100.00;96770.47;10442448;27;97835;-80
2022/10/05 03:40:26;;;;;;;4.95;2.90;;;;;;;7.60;100.00;96767.16;10447712;27;96836;-80
2022/10/05 03:45:34;;;;;;;5.47;2.95;;;;;;;7.56;100.00;96763.16;10438239;27;97112;-80
2022/10/05 03:50:45;;;;;;;5.30;3.20;;;;;;;7.57;100.00;96759.59;10431676;27;98710;-80
2022/10/05 03:55:54;;;;;;;6.47;3.22;;;;;;;7.58;100.00;96753.47;10429469;27;97134;-80
2022/10/05 04:01:02;;;;;;;6.38;2.70;;;;;;;7.50;100.00;96758.41;10420990;27;96874;-80
2022/10/05 04:06:12;;;;;;;3.58;2.60;;;;;;;7.39;100.00;96756.63;10412640;27;96985;-80
2022/10/05 04:11:21;;;;;;;6.72;3.10;;;;;;;7.34;100.00;96757.91;10429504;27;96904;-80
2022/10/05 04:16:27;;;;;;;7.95;3.33;;;;;;;7.27;100.00;96746.31;10423270;27;96760;-80
2022/10/05 04:21:38;;;;;;;4.40;3.05;;;;;;;7.21;100.00;96748.44;10430298;27;96886;-80
2022/10/05 04:26:45;;;;;;;4.40;3.00;;;;;;;7.17;100.00;96751.38;10420240;28;96668;-79
2022/10/05 04:32:01;;;;;;;5.32;2.70;;;;;;;7.12;100.00;96754.31;10428481;27;97142;-80
2022/10/05 04:37:13;;;;;;;4.22;3.10;;;;;;;7.06;100.00;96754.78;10424894;27;97104;-80
2022/10/05 04:42:27;;;;;;;5.28;2.92;;;;;;;7.03;100.00;96753.22;10422166;27;97482;-80
2022/10/05 04:48:02;;;;;;;8.45;3.70;;;;;;;7.02;100.00;96753.31;10408027;27;96988;-80
2022/10/05 04:53:14;;;;;;;7.13;4.20;;;;;;;7.00;100.00;96756.03;10416632;27;97164;-80
2022/10/05 04:58:29;;;;;;;8.40;4.65;;;;;;;7.01;100.00;96762.06;10416749;27;97030;-80
2022/10/05 05:04:02;;;;;;;7.05;3.50;;;;;;;7.03;100.00;96760.19;10390326;27;96939;-80
2022/10/05 05:09:22;;;;;;;4.60;3.28;;;;;;;6.98;100.00;96772.69;10423814;27;97014;-80
2022/10/05 05:14:55;;;;;;;6.30;4.05;;;;;;;7.00;100.00;96768.19;10376015;28;96913;-80
2022/10/05 05:20:08;;;;;;;5.55;3.40;;;;;;;6.99;100.00;96766.56;10376722;27;97366;-80
2022/10/05 05:25:24;;;;;;;5.30;2.92;;;;;;;6.95;100.00;96768.50;10442200;27;97724;-80
2022/10/05 05:30:36;;;;;;;6.28;3.13;;;;;;;6.93;100.00;96764.38;10426707;27;98000;-80
2022/10/05 05:36:19;;;;;;;4.82;3.17;;;;;;;6.84;100.00;96771.88;10413308;28;96949;-80
2022/10/05 05:41:37;;;;;;;5.70;3.00;;;;;;;6.84;100.00;96782.28;10412187;27;98297;-81
2022/10/05 05:46:44;;;;;;;5.53;3.65;;;;;;;6.84;100.00;96790.06;10409583;27;97620;-80
2022/10/05 05:52:14;;;;;;;5.05;2.63;;;;;;;6.78;100.00;96781.88;10414296;27;98638;-80
2022/10/05 05:57:23;;;;;;;5.53;2.75;;;;;;;6.77;100.00;96801.84;10414960;27;96848;-81
2022/10/05 06:02:31;;;;;;;4.18;2.45;;;;;;;6.79;100.00;96804.31;10420717;27;98518;-81
2022/10/05 06:07:37;;;;;;;6.05;3.25;;;;;;;6.82;100.00;96807.53;10426097;27;97150;-81
2022/10/05 06:12:45;;;;;;;5.10;3.58;;;;;;;6.87;100.00;96814.16;10416296;28;96712;-81
2022/10/05 06:17:51;;;;;;;8.45;3.90;;;;;;;6.97;100.00;96817.78;10446134;27;96955;-81
2022/10/05 06:22:59;;;;;;;5.35;3.42;;;;;;;7.07;100.00;96818.75;10453669;27;97437;-81
2022/10/05 06:28:10;;;;;;;4.93;3.45;;;;;;;7.24;100.00;96825.34;10451351;27;96721;-81
2022/10/05 06:33:22;;;;;;;4.90;3.00;;;;;;;7.34;100.00;96825.50;10394456;27;97605;-81
2022/10/05 06:38:43;;;;;;;4.07;3.20;;;;;;;7.41;100.00;96827.53;10426473;27;98384;-81
2022/10/05 06:43:57;;;;;;;6.43;3.45;;;;;;;7.52;100.00;96824.13;10447500;27;97107;-80
2022/10/05 06:49:18;;;;;;;4.47;2.97;;;;;;;7.62;100.00;96818.25;10446776;27;96797;-81
2022/10/05 06:54:41;;;;;;;5.07;2.60;;;;;;;7.72;100.00;96819.22;10432220;27;96893;-80
2022/10/05 06:59:53;;;;;;;4.63;2.65;;;;;;;7.77;100.00;96817.06;10407613;27;97751;-80
2022/10/05 07:05:34;;;;;;;4.18;2.97;;;;;;;7.85;100.00;96821.69;10456342;27;97177;-80
2022/10/05 07:10:44;;;;;;;7.10;3.22;;;;;;;8.02;100.00;96815.22;10414347;27;97138;-80
2022/10/05 07:15:58;;;;;;;4.97;3.20;;;;;;;8.22;100.00;96817.13;10415254;27;97035;-81
2022/10/05 07:21:09;;;;;;;6.40;3.40;;;;;;;8.39;100.00;96817.56;10419900;27;97213;-81
2022/10/05 07:26:18;;;;;;;5.13;3.42;;;;;;;8.53;100.00;96822.50;10420261;28;96936;-81
2022/10/05 07:31:33;;;;;;;7.13;4.00;;;;;;;8.67;100.00;96824.88;10420041;28;97119;-81
2022/10/05 07:42:17;;;;;;;11.52;5.07;;;;;;;9.01;100.00;96824.78;10462182;27;96677;-82
2022/10/05 07:47:31;;;;;;;7.75;4.30;;;;;;;9.18;100.00;96825.22;10411558;27;96853;-82
2022/10/05 07:52:38;;;;;;;7.45;4.25;;;;;;;9.23;100.00;96833.47;10398920;27;97676;-82
2022/10/05 07:57:49;;;;;;;7.55;4.50;;;;;;;9.38;100.00;96832.19;10420410;28;96797;-82
2022/10/05 08:02:58;;;;;;;7.20;4.07;;;;;;;9.46;100.00;96840.25;10420247;28;96954;-82
2022/10/05 08:08:10;;;;;;;3.83;3.17;;;;;;;9.62;100.00;96839.00;10419516;28;96823;-82
2022/10/05 08:13:21;;;;;;;6.65;3.10;;;;;;;9.80;100.00;96840.09;10418045;28;96838;-82
2022/10/05 08:18:42;;;;;;;8.70;3.50;;;;;;;9.86;100.00;96831.75;10419106;28;96895;-83
2022/10/05 08:23:49;;;;;;;4.32;2.88;;;;;;;9.98;100.00;96834.28;10419213;27;96719;-83
2022/10/05 08:29:00;;;;;;;3.70;2.35;;;;;;;10.15;100.00;96823.25;10417784;27;96816;-83
2022/10/05 08:34:20;;;;;;;3.40;2.60;;;;;;;10.38;100.00;96830.91;10415867;28;96851;-82
2022/10/05 08:39:27;;;;;;;3.65;2.25;;;;;;;10.74;100.00;96826.06;10415594;27;96935;-82
2022/10/05 08:45:05;;;;;;;3.35;2.20;;;;;;;11.08;100.00;96825.69;10411928;28;96814;-83
2022/10/05 08:50:23;;;;;;;5.20;2.47;;;;;;;11.38;100.00;96823.94;10313891;28;97052;-82
2022/10/05 08:55:51;;;;;;;2.83;2.25;;;;;;;11.56;100.00;96827.50;10307299;28;96981;-83
2022/10/05 09:01:01;;;;;;;6.97;2.40;;;;;;;11.78;100.00;96830.78;10309608;28;96947;-83
2022/10/05 09:06:42;;;;;;;4.80;2.60;;;;;;;11.97;100.00;96829.91;10310220;28;99633;-83
2022/10/05 09:12:03;;;;;;;5.40;2.65;;;;;;;12.10;100.00;96831.25;10129518;28;96990;-83
2022/10/05 09:17:37;;;;;;;3.22;2.40;;;;;;;12.19;100.00;96823.50;10113406;28;97146;-83
2022/10/05 09:22:58;;;;;;;3.23;2.60;;;;;;;12.44;100.00;96822.00;10104792;28;99653;-83
2022/10/05 09:28:20;;;;;;;3.78;2.75;;;;;;;12.46;100.00;96825.34;10120912;28;97069;-84
2022/10/05 09:33:59;;;;;;;4.47;2.28;;;;;;;12.71;100.00;96818.56;10107571;28;97166;-83
2022/10/05 09:39:39;;;;;;;4.82;2.35;;;;;;;13.08;100.00;96819.47;10111678;28;97126;-83
2022/10/05 09:45:26;;;;;;;2.97;2.30;;;;;;;13.43;100.00;96813.41;10116851;28;97048;-83
2022/10/05 09:51:00;;;;;;;5.53;2.42;;;;;;;13.51;100.00;96810.00;10378435;27;97065;-84
2022/10/05 09:56:43;;;;;;;3.63;2.00;;;;;;;13.71;100.00;96808.88;10441925;27;97283;-86
2022/10/05 10:02:04;;;;;;;2.63;2.13;;;;;;;13.90;100.00;96801.78;10436468;27;97840;-82
2022/10/05 10:07:41;;;;;;;4.15;2.50;;;;;;;13.93;100.00;96799.66;10424094;27;98828;-83
2022/10/05 10:13:04;;;;;;;3.83;2.45;;;;;;;13.93;100.00;96804.91;10417565;27;97366;-82
2022/10/05 10:18:27;;;;;;;3.15;2.10;;;;;;;14.09;100.00;96798.09;10416204;27;96993;-76
2022/10/05 10:24:00;;;;;;;2.85;2.35;;;;;;;14.37;100.00;96804.84;10390040;27;96857;-83
2022/10/05 10:29:44;;;;;;;4.20;2.00;;;;;;;14.51;100.00;96792.09;10399557;27;97259;-84
2022/10/05 10:35:21;;;;;;;4.75;2.25;;;;;;;14.80;100.00;96796.09;10302892;28;98501;-85
2022/10/05 10:40:33;;;;;;;4.05;2.33;;;;;;;14.96;100.00;96795.31;10318117;28;97585;-83
2022/10/05 10:45:48;;;;;;;3.63;2.13;;;;;;;15.12;100.00;96788.28;10308956;28;97999;-83
2022/10/05 10:51:18;;;;;;;7.07;2.33;;;;;;;15.44;100.00;96784.03;10320041;28;97459;-83
2022/10/05 10:56:29;;;;;;;2.47;2.00;;;;;;;15.55;100.00;96784.66;10292065;28;97591;-79
2022/10/05 11:01:35;;;;;;;3.50;1.75;;;;;;;15.68;100.00;96775.31;10293712;28;96892;-84
2022/10/05 11:07:10;;;;;;;5.85;2.20;;;;;;;15.86;100.00;96767.22;10306636;28;97079;-84
2022/10/05 11:12:31;;;;;;;;;;;;;;;15.87;100.00;96768.84;10401827;28;98408;-83
2022/10/05 11:17:57;;;;;;;2.42;2.00;;;;;;;16.02;100.00;96765.53;10234878;28;97609;-83
2022/10/05 11:23:34;;;;;;;1.98;1.67;;;;;;;16.21;100.00;96756.44;10249003;28;97135;-83
2022/10/05 11:28:58;;;;;;;4.88;1.55;;;;;;;16.50;100.00;96752.34;10248348;28;96858;-83
2022/10/05 11:34:32;;;;;;;2.55;1.38;;;;;;;16.75;100.00;96745.16;10254648;28;97513;-82
2022/10/05 11:39:54;;;;;;;3.80;1.30;;;;;;;17.03;100.00;96742.00;10225716;28;100998;-82
2022/10/05 11:45:20;;;;;;;3.08;1.20;;;;;;;17.26;100.00;96742.81;10251147;28;97012;-82
2022/10/05 11:50:32;;;;;;;3.22;1.25;;;;;;;17.46;100.00;96731.78;10249914;28;97055;-82
2022/10/05 11:55:42;;;;;;;3.42;1.48;;;;;;;17.66;100.00;96732.88;10392318;28;97634;-82
2022/10/05 12:00:53;;;;;;;3.30;1.05;;;;;;;17.86;100.00;96721.84;10405897;28;97013;-82
2022/10/05 12:06:22;;;;;;;2.28;1.30;;;;;;;18.09;100.00;96717.25;10402157;28;100354;-82
2022/10/05 12:11:52;;;;;;;2.20;0.98;;;;;;;18.25;100.00;96718.06;10400046;27;98571;-82
2022/10/05 12:17:03;;;;;;;1.80;1.20;;;;;;;18.36;100.00;96698.25;10394700;27;97744;-82
2022/10/05 12:22:14;;;;;;;5.00;1.27;;;;;;;18.45;100.00;96695.34;10402289;27;99642;-82
2022/10/05 12:27:22;;;;;;;2.20;1.10;;;;;;;18.59;100.00;96690.19;10386153;27;97812;-82
2022/10/05 12:32:33;;;;;;;1.92;1.10;;;;;;;18.71;100.00;96688.69;10382455;27;96803;-82
2022/10/05 12:37:46;;;;;;;4.90;1.00;;;;;;;18.84;100.00;96696.75;10389250;27;98551;-82
2022/10/05 12:43:01;;;;;;;2.05;1.20;;;;;;;19.01;100.00;96688.59;10407054;27;97178;-82
2022/10/05 12:48:21;;;;;;;1.83;1.00;;;;;;;19.18;100.00;96683.88;10407635;28;97203;-82
2022/10/05 12:53:39;;;;;;;3.22;1.05;;;;;;;19.24;100.00;96683.94;10392504;27;96839;-82
2022/10/05 12:58:51;;;;;;;3.40;1.23;;;;;;;19.40;100.00;96687.28;10379670;27;97849;-82
2022/10/05 13:04:03;;;;;;;3.03;1.17;;;;;;;19.60;100.00;96682.13;10383995;28;100585;-82
2022/10/05 13:09:10;;;;;;;2.03;1.23;;;;;;;19.81;100.00;96675.94;10389367;27;97678;-82
2022/10/05 13:14:36;;;;;;;1.35;1.13;;;;;;;19.86;100.00;96686.00;10417181;27;96767;-83
2022/10/05 13:19:44;;;;;;;1.75;1.20;;;;;;;19.91;100.00;96689.69;10411703;28;97907;-82
2022/10/05 13:24:58;;;;;;;2.63;1.35;;;;;;;20.02;100.00;96690.16;10409283;27;97436;-82
2022/10/05 13:30:12;;;;;;;4.13;1.40;;;;;;;20.16;100.00;96681.25;10410683;28;96709;-82
2022/10/05 13:35:36;;;;;;;2.85;1.35;;;;;;;20.25;100.00;96674.78;10411903;28;97589;-82
2022/10/05 13:40:46;;;;;;;1.20;1.10;;;;;;;20.42;100.00;96674.41;10412145;27;97228;-81
2022/10/05 13:45:55;;;;;;;1.90;1.17;;;;;;;20.51;100.00;96673.22;10406932;28;96893;-82
2022/10/05 13:51:06;;;;;;;3.58;1.55;;;;;;;20.58;100.00;96671.38;10400061;28;97221;-82
2022/10/05 13:56:19;;;;;;;2.55;1.30;;;;;;;20.70;100.00;96671.63;10402857;27;96961;-82
2022/10/05 14:01:40;;;;;;;2.78;1.60;;;;;;;20.88;100.00;96671.91;10398373;27;96925;-82
2022/10/05 14:06:44;;;;;;;2.03;1.40;;;;;;;21.00;100.00;96672.13;10395236;27;96901;-82
2022/10/05 14:11:50;;;;;;;3.85;1.67;;;;;;;21.06;100.00;96681.94;10391183;28;99012;-82
2022/10/05 14:16:56;;;;;;;2.95;1.48;;;;;;;21.28;100.00;96665.81;10407692;28;96831;-82
2022/10/05 14:22:01;;;;;;;3.03;1.35;;;;;;;21.41;100.00;96667.63;10409949;27;97653;-82
2022/10/05 14:27:19;;;;;;;2.65;1.42;;;;;;;21.50;100.00;96667.22;10391362;27;96814;-83
2022/10/05 14:32:25;;;;;;;1.85;1.25;;;;;;;21.58;100.00;96658.19;10387393;28;96794;-82
2022/10/05 14:37:32;;;;;;;2.90;1.35;;;;;;;21.69;100.00;96659.44;10393758;28;97273;-82
2022/10/05 14:42:42;;;;;;;3.03;1.40;;;;;;;21.72;100.00;96668.84;10402111;28;97791;-82
2022/10/05 14:47:52;;;;;;;2.40;1.33;;;;;;;21.73;100.00;96659.84;10390388;28;97031;-82
2022/10/05 14:53:15;;;;;;;4.43;1.70;;;;;;;21.73;100.00;96667.81;10396845;27;98710;-82
2022/10/05 14:58:31;;;;;;;2.00;1.38;;;;;;;21.84;100.00;96662.69;10402995;28;97619;-81
2022/10/05 15:03:47;;;;;;;3.22;1.40;;;;;;;21.88;100.00;96671.88;10397847;27;96988;-82
2022/10/05 15:09:04;;;;;;;1.45;1.17;;;;;;;21.94;100.00;96672.88;10376081;27;97113;-82
